Time;durP1;ratioP1;P1;durP2;ratioP2;P2;SDS_P1;SDS_P2;PMS_P1;PMS_P2;Temp;Humidity;BMP_temperature;BMP_pressure;BME280_temperature;BME280_humidity;BME280_pressure;Samples;Min_cycle;Max_cycle;Signal;HPM_P1;HPM_P2
2022/05/13 00:02:32;;;;;;;1.88;0.60;;;22.00;42.90;21.20;101349.00;;;;5022180;28;20436;-72
2022/05/13 00:05:18;;;;;;;2.20;0.60;;;22.00;43.00;21.20;101343.00;;;;5045099;28;20485;-72
2022/05/13 00:08:05;;;;;;;0.52;0.50;;;22.00;42.90;21.20;101342.00;;;;5034795;28;20042;-72
2022/05/13 00:10:51;;;;;;;0.73;0.68;;;22.00;43.00;21.20;101343.00;;;;5038868;28;20611;-72
2022/05/13 00:13:37;;;;;;;1.73;0.60;;;22.00;43.10;21.20;101342.00;;;;5022094;28;20624;-72
2022/05/13 00:16:23;;;;;;;1.55;0.60;;;22.00;43.00;21.10;101333.00;;;;5031180;28;20045;-72
2022/05/13 00:19:11;;;;;;;2.33;1.08;;;22.00;43.10;21.10;101345.00;;;;5022941;28;20037;-72
2022/05/13 00:21:57;;;;;;;0.55;0.47;;;22.00;43.10;21.10;101344.00;;;;5021791;28;20048;-72
2022/05/13 00:24:44;;;;;;;0.80;0.60;;;22.00;43.10;21.10;101339.00;;;;5035565;28;20041;-72
2022/05/13 00:27:30;;;;;;;1.27;0.68;;;22.00;43.20;21.10;101340.00;;;;5043916;28;20045;-72
2022/05/13 00:30:17;;;;;;;1.88;0.50;;;21.90;43.10;21.10;101342.00;;;;5033993;28;20475;-72
2022/05/13 00:33:03;;;;;;;2.63;0.90;;;21.90;43.00;21.10;101338.00;;;;5022973;28;20650;-72
2022/05/13 00:35:49;;;;;;;0.90;0.60;;;21.90;43.10;21.10;101337.00;;;;5023330;28;20441;-72
2022/05/13 00:38:35;;;;;;;1.05;0.70;;;21.90;43.00;21.10;101326.00;;;;5031996;28;20043;-72
2022/05/13 00:41:21;;;;;;;0.75;0.50;;;21.90;42.90;21.10;101327.00;;;;5022649;28;20045;-72
2022/05/13 00:44:07;;;;;;;1.85;0.75;;;21.90;43.00;21.10;101325.00;;;;5033656;28;20462;-72
2022/05/13 00:46:53;;;;;;;0.55;0.55;;;21.90;43.00;21.10;101325.00;;;;5032754;28;20061;-72
2022/05/13 00:49:40;;;;;;;3.53;1.10;;;21.80;42.90;21.10;101318.00;;;;5039210;28;20041;-72
2022/05/13 00:52:26;;;;;;;2.15;0.75;;;21.90;43.10;21.00;101313.00;;;;5011382;28;20039;-72
2022/05/13 00:55:18;;;;;;;1.08;0.63;;;21.90;43.10;21.00;101323.00;;;;5007545;28;20033;-72
2022/05/13 00:58:06;;;;;;;1.30;0.60;;;21.80;43.10;21.00;101318.00;;;;5020980;28;20045;-72
2022/05/13 01:00:52;;;;;;;0.90;0.60;;;21.90;43.10;21.00;101311.00;;;;5022404;28;20045;-72
2022/05/13 01:03:39;;;;;;;1.20;0.88;;;21.90;43.10;21.00;101310.00;;;;5032851;28;20044;-72
2022/05/13 01:06:25;;;;;;;1.95;0.82;;;21.80;43.00;21.00;101306.00;;;;5021343;28;20045;-72
2022/05/13 01:09:11;;;;;;;1.25;0.70;;;21.80;42.90;21.00;101307.00;;;;5034565;28;20037;-72
2022/05/13 01:12:00;;;;;;;1.63;0.68;;;21.80;43.00;21.00;101315.00;;;;5006895;28;20037;-72
2022/05/13 01:14:53;;;;;;;2.50;0.80;;;21.80;43.10;21.00;101307.00;;;;5000056;28;20091;-72
2022/05/13 01:20:50;;;;;;;2.78;0.88;;;21.80;43.10;21.00;101311.00;;;;5018941;28;20102;-72
2022/05/13 01:23:40;;;;;;;2.28;0.80;;;21.80;43.00;21.00;101307.00;;;;5023062;28;20045;-72
2022/05/13 01:26:29;;;;;;;1.83;0.73;;;21.80;43.10;21.00;101304.00;;;;5008613;28;20051;-72
2022/05/13 01:29:15;;;;;;;0.98;0.77;;;21.80;43.10;21.00;101302.00;;;;5037052;28;20046;-72
2022/05/13 01:32:01;;;;;;;1.95;0.73;;;21.80;43.10;21.00;101302.00;;;;5023446;28;20311;-72
2022/05/13 01:34:47;;;;;;;1.70;0.75;;;21.80;43.10;21.00;101299.00;;;;5031156;28;20438;-72
2022/05/13 01:37:33;;;;;;;1.40;0.75;;;21.80;43.00;21.00;101303.00;;;;5042132;28;20051;-72
2022/05/13 01:40:20;;;;;;;1.98;0.90;;;21.80;42.90;21.00;101294.00;;;;5021666;28;20041;-72
2022/05/13 01:43:06;;;;;;;1.85;0.70;;;21.80;42.90;20.90;101296.00;;;;5034322;28;20049;-72
2022/05/13 01:45:53;;;;;;;1.80;0.80;;;21.70;42.90;20.90;101295.00;;;;5037327;28;20068;-72
2022/05/13 01:48:39;;;;;;;1.15;0.60;;;21.80;42.90;20.90;101303.00;;;;5017855;28;20049;-72
2022/05/13 01:51:25;;;;;;;2.60;0.82;;;21.70;42.90;20.90;101295.00;;;;5028423;28;20025;-72
2022/05/13 01:54:11;;;;;;;2.25;0.60;;;21.80;42.90;20.90;101296.00;;;;5021995;28;20469;-72
2022/05/13 01:56:57;;;;;;;2.03;0.90;;;21.70;42.90;20.90;101304.00;;;;5036534;28;20045;-72
2022/05/13 01:59:43;;;;;;;1.33;0.60;;;21.70;42.90;20.90;101302.00;;;;5036703;28;20048;-72
2022/05/13 02:02:29;;;;;;;1.48;0.60;;;21.70;42.90;20.90;101300.00;;;;5029309;28;20135;-72
2022/05/13 02:05:15;;;;;;;2.03;0.70;;;21.70;42.90;20.90;101296.00;;;;5047952;28;20040;-72
2022/05/13 02:08:02;;;;;;;2.72;0.80;;;21.70;43.00;20.90;101300.00;;;;5023695;28;20041;-72
2022/05/13 02:10:48;;;;;;;0.80;0.50;;;21.70;42.90;20.90;101303.00;;;;5021413;28;20120;-72
2022/05/13 02:13:34;;;;;;;2.05;0.70;;;21.70;42.90;20.90;101304.00;;;;5042439;28;20479;-72
2022/05/13 02:16:20;;;;;;;2.53;0.75;;;21.70;42.90;20.90;101297.00;;;;5023047;28;20038;-72
2022/05/13 02:19:06;;;;;;;1.55;0.70;;;21.70;42.90;20.90;101290.00;;;;5041057;28;20102;-72
2022/05/13 02:21:52;;;;;;;1.52;0.77;;;21.70;42.90;20.90;101287.00;;;;5030241;28;20041;-72
2022/05/13 02:24:38;;;;;;;1.83;0.60;;;21.70;42.90;20.90;101292.00;;;;5038876;28;20377;-72
2022/05/13 02:27:24;;;;;;;3.13;1.15;;;21.70;42.90;20.90;101295.00;;;;5036037;28;20049;-72
2022/05/13 02:30:11;;;;;;;1.20;0.75;;;21.70;42.90;20.90;101295.00;;;;5033454;28;20113;-72
2022/05/13 02:32:57;;;;;;;2.08;1.02;;;21.60;42.80;20.80;101299.00;;;;5030866;28;20033;-72
2022/05/13 02:35:43;;;;;;;2.22;1.00;;;21.70;42.90;20.80;101292.00;;;;5020308;28;20072;-72
2022/05/13 02:38:29;;;;;;;1.40;0.75;;;21.70;42.80;20.80;101296.00;;;;5042536;28;20245;-72
2022/05/13 02:41:15;;;;;;;2.45;0.75;;;21.70;43.00;20.80;101301.00;;;;5035007;28;20055;-72
2022/05/13 02:44:01;;;;;;;2.38;0.77;;;21.60;42.90;20.80;101298.00;;;;5040985;28;20123;-72
2022/05/13 02:46:47;;;;;;;1.80;0.90;;;21.60;42.80;20.80;101296.00;;;;5036568;28;20478;-72
2022/05/13 02:49:33;;;;;;;1.65;0.77;;;21.60;42.80;20.80;101294.00;;;;5037435;28;20044;-72
2022/05/13 02:52:19;;;;;;;1.42;0.65;;;21.60;42.90;20.80;101295.00;;;;5026656;28;20477;-72
2022/05/13 02:55:06;;;;;;;2.75;0.90;;;21.60;42.80;20.80;101297.00;;;;5031187;28;20096;-72
2022/05/13 02:57:52;;;;;;;0.95;0.60;;;21.60;42.80;20.80;101291.00;;;;5038434;28;20080;-72
2022/05/13 03:00:39;;;;;;;1.15;0.73;;;21.60;43.00;20.80;101289.00;;;;5020396;28;20446;-72
2022/05/13 03:03:25;;;;;;;3.88;0.80;;;21.60;42.90;20.80;101281.00;;;;5024223;28;20045;-72
2022/05/13 03:06:11;;;;;;;1.77;0.82;;;21.60;42.60;20.80;101273.00;;;;5035493;28;20489;-72
2022/05/13 03:08:58;;;;;;;2.60;0.90;;;21.60;42.60;20.80;101276.00;;;;5020776;28;20064;-71
2022/05/13 03:11:44;;;;;;;2.15;0.70;;;21.60;42.40;20.80;101270.00;;;;5017586;28;20045;-72
2022/05/13 03:14:30;;;;;;;1.95;0.75;;;21.60;42.30;20.80;101275.00;;;;5027743;28;20045;-72
2022/05/13 03:17:16;;;;;;;2.03;0.88;;;21.60;42.20;20.80;101271.00;;;;5033543;28;20046;-72
2022/05/13 03:20:05;;;;;;;3.67;0.70;;;21.60;42.20;20.80;101266.00;;;;5021208;28;20045;-72
2022/05/13 03:22:51;;;;;;;1.10;0.70;;;21.60;42.20;20.80;101265.00;;;;5014638;28;20049;-72
2022/05/13 03:25:37;;;;;;;1.17;0.80;;;21.60;42.20;20.80;101261.00;;;;5020326;28;20148;-72
2022/05/13 03:28:24;;;;;;;1.58;0.73;;;21.60;42.20;20.80;101258.00;;;;5014506;28;20403;-72
2022/05/13 03:31:10;;;;;;;1.67;0.70;;;21.60;42.10;20.80;101268.00;;;;5036712;28;20041;-72
2022/05/13 03:33:56;;;;;;;3.00;0.77;;;21.60;42.30;20.80;101272.00;;;;5038817;28;20037;-72
2022/05/13 03:36:42;;;;;;;1.48;0.50;;;21.60;42.20;20.80;101274.00;;;;5035714;28;20072;-72
2022/05/13 03:39:28;;;;;;;1.52;0.70;;;21.60;42.30;20.80;101276.00;;;;5032412;28;20037;-72
2022/05/13 03:42:15;;;;;;;3.00;0.90;;;21.60;42.10;20.80;101278.00;;;;5036004;28;20041;-72
2022/05/13 03:45:02;;;;;;;1.43;0.50;;;21.60;42.10;20.70;101269.00;;;;5027182;28;20504;-72
2022/05/13 03:47:49;;;;;;;1.67;0.77;;;21.60;42.10;20.70;101262.00;;;;5019255;28;20288;-72
2022/05/13 03:50:36;;;;;;;1.65;0.73;;;21.50;42.00;20.70;101255.00;;;;5039474;28;20040;-72
2022/05/13 03:53:22;;;;;;;3.70;0.80;;;21.60;42.00;20.70;101268.00;;;;5033403;28;20462;-72
2022/05/13 03:56:08;;;;;;;2.45;1.00;;;21.50;42.00;20.70;101269.00;;;;5021417;28;20565;-72
2022/05/13 03:58:55;;;;;;;1.67;0.70;;;21.50;41.90;20.70;101265.00;;;;5037090;28;20048;-72
2022/05/13 04:01:41;;;;;;;1.85;0.60;;;21.50;41.90;20.70;101257.00;;;;5034460;28;20049;-72
2022/05/13 04:04:29;;;;;;;2.05;0.70;;;21.60;41.90;20.70;101256.00;;;;5027672;28;20471;-72
2022/05/13 04:10:20;;;;;;;3.25;0.75;;;21.50;41.90;20.70;101269.00;;;;5022084;28;20088;-72
2022/05/13 04:16:11;;;;;;;3.95;0.70;;;21.50;41.90;20.70;101257.00;;;;5023315;28;20041;-72
2022/05/13 04:18:58;;;;;;;1.10;0.50;;;21.50;41.80;20.70;101264.00;;;;5021914;28;20045;-72
2022/05/13 04:21:44;;;;;;;0.98;0.60;;;21.50;41.90;20.70;101253.00;;;;5038115;28;20266;-72
2022/05/13 04:24:30;;;;;;;2.75;0.68;;;21.50;41.80;20.70;101251.00;;;;5012192;28;20503;-72
2022/05/13 04:27:16;;;;;;;2.95;0.60;;;21.50;41.80;20.70;101264.00;;;;5036381;28;20046;-72
2022/05/13 04:30:05;;;;;;;4.30;1.00;;;21.50;41.80;20.70;101262.00;;;;5035186;28;20045;-72
2022/05/13 04:32:51;;;;;;;3.03;0.60;;;21.50;41.70;20.60;101255.00;;;;5035925;28;20049;-72
2022/05/13 04:35:37;;;;;;;1.42;0.50;;;21.50;41.80;20.60;101265.00;;;;5036062;28;20051;-72
2022/05/13 04:38:23;;;;;;;3.90;1.00;;;21.50;41.70;20.60;101258.00;;;;5046915;28;20092;-72
2022/05/13 04:44:16;;;;;;;4.00;0.85;;;21.50;41.70;20.60;101268.00;;;;5012806;28;20097;-72
2022/05/13 04:47:03;;;;;;;2.70;0.70;;;21.50;41.70;20.60;101269.00;;;;5014771;28;20049;-72
2022/05/13 04:49:49;;;;;;;4.43;0.80;;;21.50;41.70;20.60;101279.00;;;;5043897;28;20048;-72
2022/05/13 04:52:35;;;;;;;3.30;0.82;;;21.40;41.70;20.60;101286.00;;;;5031970;28;20029;-72
2022/05/13 04:55:21;;;;;;;1.23;0.52;;;21.40;41.70;20.60;101285.00;;;;5044195;28;20052;-72
2022/05/13 04:58:07;;;;;;;1.80;0.80;;;21.40;41.70;20.60;101289.00;;;;5035396;28;20116;-72
2022/05/13 05:00:55;;;;;;;3.30;0.95;;;21.40;41.70;20.50;101300.00;;;;5042172;28;20049;-72
2022/05/13 05:03:42;;;;;;;2.60;1.10;;;21.40;41.70;20.50;101303.00;;;;5023498;28;20502;-72
2022/05/13 05:06:28;;;;;;;;;;;21.40;41.70;20.50;101298.00;;;;5024988;28;20053;-72
2022/05/13 05:09:15;;;;;;;4.13;0.95;;;21.40;41.80;20.50;101308.00;;;;5039517;28;19925;-72
2022/05/13 05:12:01;;;;;;;3.22;1.15;;;21.40;41.70;20.50;101308.00;;;;5025500;28;20410;-72
2022/05/13 05:14:47;;;;;;;3.05;0.70;;;21.40;41.80;20.50;101306.00;;;;5024588;28;20460;-72
2022/05/13 05:17:33;;;;;;;3.70;1.27;;;21.40;41.80;20.50;101322.00;;;;5036473;28;20049;-72
2022/05/13 05:20:20;;;;;;;3.25;1.02;;;21.40;41.90;20.50;101329.00;;;;5012273;28;20037;-72
2022/05/13 05:23:07;;;;;;;4.20;1.00;;;21.30;41.90;20.50;101330.00;;;;5041590;28;20044;-72
2022/05/13 05:25:53;;;;;;;2.78;0.90;;;21.30;42.00;20.50;101332.00;;;;5034560;28;20052;-72
2022/05/13 05:28:41;;;;;;;2.08;0.85;;;21.30;42.00;20.50;101319.00;;;;5039267;28;20041;-72
2022/05/13 05:31:27;;;;;;;2.00;0.88;;;21.30;42.10;20.50;101325.00;;;;5029881;28;20048;-72
2022/05/13 05:34:13;;;;;;;4.90;1.88;;;21.30;42.10;20.50;101312.00;;;;5036269;28;20091;-72
2022/05/13 05:36:59;;;;;;;4.75;1.48;;;21.30;42.10;20.40;101320.00;;;;5044477;28;20044;-72
2022/05/13 05:39:45;;;;;;;3.92;1.27;;;21.30;42.10;20.40;101324.00;;;;5034800;28;20269;-72
2022/05/13 05:42:31;;;;;;;4.65;1.30;;;21.30;42.20;20.40;101333.00;;;;5024280;28;20135;-72
2022/05/13 05:45:19;;;;;;;2.60;1.08;;;21.30;42.20;20.40;101335.00;;;;5021269;28;20502;-72
2022/05/13 05:48:05;;;;;;;5.55;1.23;;;21.30;43.00;20.40;101341.00;;;;5012102;28;20038;-72
2022/05/13 05:50:53;;;;;;;4.72;1.42;;;21.30;42.40;20.40;101342.00;;;;5017767;28;20068;-72
2022/05/13 05:59:48;;;;;;;5.80;1.52;;;21.30;42.50;20.30;101358.00;;;;5033424;28;20087;-71
2022/05/13 06:02:34;;;;;;;3.70;1.58;;;21.30;42.60;20.30;101367.00;;;;5008846;28;20498;-72
2022/05/13 06:05:21;;;;;;;2.78;1.40;;;21.30;42.70;20.30;101367.00;;;;5039518;28;20044;-72
2022/05/13 06:08:08;;;;;;;2.83;1.58;;;21.30;42.70;20.30;101365.00;;;;5036368;28;20471;-71
2022/05/13 06:10:54;;;;;;;3.35;1.50;;;21.20;42.80;20.30;101370.00;;;;5037008;28;20041;-71
2022/05/13 06:13:40;;;;;;;6.88;1.65;;;21.30;42.80;20.30;101372.00;;;;5044691;28;20033;-71
2022/05/13 06:16:27;;;;;;;6.55;1.50;;;21.30;42.80;20.30;101369.00;;;;5040198;28;20041;-71
2022/05/13 06:19:13;;;;;;;5.20;1.10;;;21.20;42.90;20.30;101371.00;;;;5037401;28;20081;-72
2022/05/13 06:21:59;;;;;;;4.05;1.48;;;21.20;43.00;20.30;101375.00;;;;5020708;28;20560;-72
2022/05/13 06:24:45;;;;;;;4.55;1.40;;;21.20;43.00;20.30;101377.00;;;;5034758;28;20055;-72
2022/05/13 06:27:32;;;;;;;6.90;2.05;;;21.30;43.20;20.30;101374.00;;;;5038288;28;20540;-72
2022/05/13 06:30:25;;;;;;;3.47;1.75;;;21.40;43.20;20.30;101384.00;;;;5036862;28;20501;-72
2022/05/13 06:33:11;;;;;;;4.78;1.73;;;21.20;43.20;20.30;101384.00;;;;5019936;28;20041;-72
2022/05/13 06:35:57;;;;;;;8.68;2.00;;;21.20;43.20;20.30;101377.00;;;;5034907;28;20041;-72
2022/05/13 06:38:44;;;;;;;2.80;1.50;;;21.20;43.30;20.30;101388.00;;;;5033263;28;20560;-72
2022/05/13 06:41:30;;;;;;;4.20;1.70;;;21.20;43.20;20.30;101379.00;;;;5023373;28;20044;-72
2022/05/13 06:44:18;;;;;;;6.65;1.88;;;21.20;43.30;20.30;101380.00;;;;5009523;28;20049;-71
2022/05/13 06:47:04;;;;;;;5.47;1.60;;;21.30;43.30;20.30;101393.00;;;;5042125;28;20050;-72
2022/05/13 06:49:50;;;;;;;5.15;1.65;;;21.20;43.30;20.30;101396.00;;;;5033536;28;20049;-72
2022/05/13 06:52:36;;;;;;;9.20;2.08;;;21.20;43.30;20.30;101391.00;;;;5027453;28;20048;-72
2022/05/13 06:55:23;;;;;;;4.97;1.80;;;21.20;43.30;20.30;101404.00;;;;5026413;28;20284;-72
2022/05/13 06:58:10;;;;;;;4.53;1.88;;;21.20;43.30;20.30;101389.00;;;;5024582;28;20459;-72
2022/05/13 07:00:56;;;;;;;5.82;1.90;;;21.20;43.40;20.30;101386.00;;;;5042936;28;20473;-72
2022/05/13 07:03:42;;;;;;;5.95;1.67;;;21.20;43.40;20.30;101385.00;;;;5035422;28;20040;-72
2022/05/13 07:06:28;;;;;;;4.55;1.75;;;21.20;43.50;20.30;101374.00;;;;5045297;28;20486;-72
2022/05/13 07:09:14;;;;;;;6.47;1.90;;;21.20;43.40;20.30;101389.00;;;;5045491;28;20037;-72
2022/05/13 07:12:01;;;;;;;11.48;2.30;;;21.20;43.40;20.30;101390.00;;;;5041807;28;20067;-72
2022/05/13 07:14:48;;;;;;;5.93;1.90;;;21.20;43.50;20.20;101395.00;;;;5038530;28;20049;-72
2022/05/13 07:17:34;;;;;;;6.00;2.10;;;21.20;43.60;20.20;101388.00;;;;5026075;28;20198;-72
2022/05/13 07:20:21;;;;;;;9.75;2.45;;;21.30;43.60;20.20;101384.00;;;;5026653;28;20051;-72
2022/05/13 07:23:07;;;;;;;5.72;1.90;;;21.20;43.60;20.20;101389.00;;;;5046857;28;20043;-72
2022/05/13 07:25:54;;;;;;;6.75;2.15;;;21.20;43.60;20.20;101394.00;;;;5026237;28;20059;-72
2022/05/13 07:28:40;;;;;;;6.15;2.28;;;21.20;43.60;20.20;101391.00;;;;5041969;28;20045;-72
2022/05/13 07:31:26;;;;;;;6.97;2.30;;;21.20;43.60;20.20;101389.00;;;;5041489;28;20041;-72
2022/05/13 07:34:12;;;;;;;3.80;2.22;;;21.20;43.70;20.20;101399.00;;;;5039555;28;20063;-72
2022/05/13 07:36:58;;;;;;;7.82;1.95;;;21.20;43.80;20.10;101398.00;;;;5037125;28;20482;-72
2022/05/13 07:42:48;;;;;;;5.60;2.00;;;21.20;43.80;20.20;101401.00;;;;5022847;28;20044;-72
2022/05/13 07:45:35;;;;;;;4.82;2.08;;;21.20;43.80;20.20;101399.00;;;;5032967;28;20073;-72
2022/05/13 07:48:21;;;;;;;5.60;1.90;;;21.20;43.90;20.20;101416.00;;;;5035038;28;20110;-72
2022/05/13 07:51:08;;;;;;;6.95;2.20;;;21.20;44.00;20.20;101413.00;;;;5026365;28;20119;-72
2022/05/13 07:53:54;;;;;;;6.38;2.13;;;21.20;44.00;20.20;101409.00;;;;5041199;28;20490;-72
2022/05/13 07:56:40;;;;;;;5.82;2.10;;;21.20;44.00;20.20;101410.00;;;;5041935;28;20063;-72
2022/05/13 07:59:26;;;;;;;6.70;1.77;;;21.20;44.00;20.20;101405.00;;;;5041786;28;20045;-72
2022/05/13 08:02:12;;;;;;;3.97;1.77;;;21.20;44.00;20.20;101407.00;;;;5036432;28;20029;-72
2022/05/13 08:04:58;;;;;;;7.05;1.90;;;21.20;43.90;20.20;101415.00;;;;5023619;28;20049;-72
2022/05/13 08:07:44;;;;;;;4.25;1.67;;;21.20;43.90;20.20;101425.00;;;;5037893;28;20044;-72
2022/05/13 08:10:31;;;;;;;7.22;1.40;;;21.20;43.90;20.30;101423.00;;;;5027589;28;20055;-72
2022/05/13 08:13:17;;;;;;;3.83;1.42;;;21.20;43.90;20.30;101420.00;;;;5033593;28;20080;-72
2022/05/13 08:16:10;;;;;;;4.95;1.23;;;21.20;43.90;20.30;101428.00;;;;5033780;28;20041;-72
2022/05/13 08:18:57;;;;;;;11.23;1.80;;;21.30;44.00;20.30;101433.00;;;;5013286;28;20037;-72
2022/05/13 08:21:43;;;;;;;3.88;1.40;;;21.30;43.90;20.30;101435.00;;;;5047228;28;20399;-72
2022/05/13 08:24:29;;;;;;;6.32;1.90;;;21.30;43.80;20.30;101437.00;;;;5036814;28;20151;-72
2022/05/13 08:27:15;;;;;;;6.07;1.50;;;21.30;43.90;20.30;101436.00;;;;5024924;28;20038;-72
2022/05/13 08:30:02;;;;;;;3.88;1.52;;;21.20;43.80;20.30;101436.00;;;;5036384;28;20037;-72
2022/05/13 08:32:48;;;;;;;3.37;1.60;;;21.30;43.90;20.30;101440.00;;;;5027611;28;20076;-72
2022/05/13 08:35:36;;;;;;;6.05;2.08;;;21.30;43.90;20.20;101449.00;;;;5020647;28;20498;-72
2022/05/13 08:38:23;;;;;;;;;;;21.30;43.90;20.30;101437.00;;;;5022485;28;20049;-72
2022/05/13 08:41:09;;;;;;;7.32;1.80;;;21.30;43.80;20.20;101437.00;;;;5047554;28;20321;-72
2022/05/13 08:44:00;;;;;;;2.90;1.40;;;21.30;43.70;20.20;101440.00;;;;5040333;28;20470;-72
2022/05/13 08:46:56;;;;;;;4.88;1.52;;;21.30;43.70;20.20;101440.00;;;;5008493;28;20120;-72
2022/05/13 08:49:52;;;;;;;5.63;1.80;;;21.30;43.70;20.20;101437.00;;;;5020393;28;20040;-71
2022/05/13 08:53:06;;;;;;;4.70;1.60;;;21.30;43.70;20.20;101432.00;;;;5012652;28;20045;-72
2022/05/13 08:56:01;;;;;;;3.50;1.30;;;21.30;43.70;20.30;101440.00;;;;5025107;28;20113;-72
2022/05/13 08:59:28;;;;;;;4.88;1.45;;;21.30;43.60;20.20;101437.00;;;;5022742;28;20049;-72
2022/05/13 09:02:22;;;;;;;4.40;1.40;;;21.30;43.70;20.20;101437.00;;;;5018239;28;20048;-72
2022/05/13 09:05:47;;;;;;;2.78;1.10;;;21.30;43.60;20.20;101432.00;;;;5042730;28;20076;-72
2022/05/13 09:08:33;;;;;;;3.13;1.20;;;21.30;43.60;20.20;101433.00;;;;5010805;28;20103;-72
2022/05/13 09:11:30;;;;;;;6.03;1.63;;;21.30;43.60;20.20;101437.00;;;;5011944;28;20073;-72
2022/05/13 09:14:44;;;;;;;5.45;1.55;;;21.30;43.80;20.20;101437.00;;;;5045335;28;20037;-71
2022/05/13 09:18:07;;;;;;;3.65;1.52;;;21.30;43.90;20.20;101444.00;;;;5039953;28;20047;-72
2022/05/13 09:20:58;;;;;;;5.35;2.00;;;21.30;44.00;20.20;101439.00;;;;5019244;28;20045;-72
2022/05/13 09:23:45;;;;;;;5.68;1.70;;;21.30;43.90;20.20;101453.00;;;;5025403;28;20528;-73
2022/05/13 09:26:31;;;;;;;6.15;1.63;;;21.30;43.90;20.30;101448.00;;;;5035441;28;20418;-72
2022/05/13 09:29:18;;;;;;;5.43;1.70;;;21.30;44.00;20.30;101449.00;;;;5038370;28;20106;-72
2022/05/13 09:32:07;;;;;;;5.90;1.52;;;21.30;43.90;20.30;101443.00;;;;5037560;28;20088;-72
2022/05/13 09:35:05;;;;;;;4.45;1.58;;;21.30;43.80;20.30;101445.00;;;;5026173;28;20107;-72
2022/05/13 09:37:51;;;;;;;;;;;21.30;43.90;20.20;101440.00;;;;5027286;28;20049;-72
2022/05/13 09:40:38;;;;;;;2.42;1.00;;;21.40;43.80;20.30;101449.00;;;;5036182;28;19955;-72
2022/05/13 09:43:37;;;;;;;3.90;1.65;;;21.40;43.80;20.30;101428.00;;;;5042387;28;20053;-72
2022/05/13 09:46:33;;;;;;;3.47;1.17;;;21.40;43.70;20.30;101427.00;;;;5036379;28;20230;-72
2022/05/13 09:49:33;;;;;;;3.08;1.55;;;21.40;43.70;20.30;101425.00;;;;5025088;28;20125;-72
2022/05/13 09:52:29;;;;;;;4.75;1.60;;;21.40;43.70;20.30;101430.00;;;;5019853;28;20052;-72
2022/05/13 09:55:25;;;;;;;4.57;1.50;;;21.40;43.70;20.30;101438.00;;;;5013385;28;20051;-73
2022/05/13 09:58:35;;;;;;;6.28;1.67;;;21.40;43.60;20.30;101441.00;;;;5036080;28;20131;-71
2022/05/13 10:01:25;;;;;;;5.88;1.60;;;21.40;43.60;20.30;101447.00;;;;5028588;28;20048;-72
2022/05/13 10:04:24;;;;;;;4.90;1.20;;;21.40;43.50;20.30;101446.00;;;;5025381;28;20040;-72
2022/05/13 10:07:14;;;;;;;4.38;1.50;;;21.40;43.40;20.30;101432.00;;;;5021736;28;20045;-72
2022/05/13 10:16:21;;;;;;;7.75;1.70;;;21.40;43.40;20.30;101442.00;;;;5042572;28;20407;-72
2022/05/13 10:19:25;;;;;;;4.28;1.98;;;21.40;43.40;20.30;101452.00;;;;5008705;28;20032;-72
2022/05/13 10:22:22;;;;;;;3.10;1.52;;;21.40;43.30;20.30;101452.00;;;;4998540;28;20362;-72
2022/05/13 10:25:17;;;;;;;2.28;1.63;;;21.40;43.30;20.30;101452.00;;;;5020165;28;20041;-71
2022/05/13 10:28:12;;;;;;;2.17;1.30;;;21.40;43.30;20.30;101457.00;;;;4999406;28;20208;-71
2022/05/13 10:31:08;;;;;;;3.50;1.77;;;21.40;43.40;20.30;101451.00;;;;4998876;28;20091;-71
2022/05/13 10:34:07;;;;;;;4.80;1.35;;;21.40;43.40;20.30;101456.00;;;;5024624;28;20041;-70
2022/05/13 10:37:08;;;;;;;5.63;1.52;;;21.40;43.40;20.30;101463.00;;;;5019892;28;20055;-71
2022/05/13 10:40:09;;;;;;;6.32;1.58;;;21.40;43.50;20.30;101463.00;;;;5033607;28;20051;-70
2022/05/13 10:43:05;;;;;;;5.78;2.20;;;21.40;43.50;20.30;101475.00;;;;5034654;28;20046;-71
2022/05/13 10:45:52;;;;;;;7.25;1.77;;;21.40;43.40;20.30;101477.00;;;;5023702;28;20037;-71
2022/05/13 10:48:38;;;;;;;5.57;1.60;;;21.40;43.40;20.30;101486.00;;;;5011135;28;20481;-71
2022/05/13 10:51:45;;;;;;;7.63;2.03;;;21.40;43.40;20.30;101489.00;;;;5037573;28;20041;-71
2022/05/13 10:55:10;;;;;;;3.78;1.92;;;21.40;43.40;20.30;101476.00;;;;5023325;28;20041;-71
2022/05/13 10:58:05;;;;;;;3.28;1.55;;;21.40;43.50;20.30;101471.00;;;;4980605;28;20552;-71
2022/05/13 11:01:24;;;;;;;4.93;1.73;;;21.40;43.50;20.30;101482.00;;;;5034363;28;20146;-71
2022/05/13 11:04:17;;;;;;;6.15;1.83;;;21.40;43.70;20.40;101489.00;;;;5019615;28;20048;-71
2022/05/13 11:07:32;;;;;;;4.93;1.60;;;21.40;43.40;20.40;101497.00;;;;5032839;28;20115;-71
2022/05/13 11:10:41;;;;;;;5.40;1.70;;;21.40;43.50;20.30;101479.00;;;;5033215;28;20059;-70
2022/05/13 11:13:57;;;;;;;7.47;2.15;;;21.40;43.40;20.30;101487.00;;;;5024905;28;20041;-70
2022/05/13 11:17:11;;;;;;;3.92;1.75;;;21.40;43.40;20.30;101492.00;;;;5035325;28;20091;-71
2022/05/13 11:20:06;;;;;;;5.18;1.45;;;21.40;43.40;20.30;101490.00;;;;5023392;28;20501;-71
2022/05/13 11:23:23;;;;;;;3.25;1.70;;;21.40;43.50;20.30;101495.00;;;;5036426;28;20049;-71
2022/05/13 11:26:30;;;;;;;6.32;1.80;;;21.40;43.50;20.30;101490.00;;;;5025526;28;20086;-71
2022/05/13 11:29:22;;;;;;;3.75;1.65;;;21.40;43.60;20.30;101482.00;;;;5018451;28;20045;-71
2022/05/13 11:32:48;;;;;;;8.85;1.67;;;21.40;43.50;20.30;101492.00;;;;5023742;28;20116;-72
2022/05/13 11:35:41;;;;;;;2.95;1.33;;;21.40;43.60;20.40;101504.00;;;;5041486;28;20040;-72
2022/05/13 11:38:53;;;;;;;5.20;1.77;;;21.40;43.70;20.40;101506.00;;;;5020144;28;20044;-72
2022/05/13 11:42:00;;;;;;;3.47;1.25;;;21.40;43.40;20.40;101502.00;;;;5031938;28;20037;-72
2022/05/13 11:45:15;;;;;;;2.80;1.45;;;21.40;43.30;20.40;101496.00;;;;5021422;28;20147;-72
2022/05/13 11:48:31;;;;;;;5.07;1.33;;;21.40;43.50;20.40;101499.00;;;;5012456;28;20041;-72
2022/05/13 11:51:28;;;;;;;6.47;1.67;;;21.40;43.50;20.40;101497.00;;;;5016267;28;20529;-72
2022/05/13 11:54:27;;;;;;;3.65;1.25;;;21.50;43.50;20.40;101484.00;;;;5017469;28;20045;-72
2022/05/13 11:57:28;;;;;;;2.65;1.52;;;21.50;43.40;20.40;101470.00;;;;5031527;28;20052;-72
2022/05/13 12:00:33;;;;;;;4.63;1.38;;;21.50;43.40;20.40;101476.00;;;;5026408;28;20128;-72
2022/05/13 12:03:19;;;;;;;2.83;1.35;;;21.50;43.40;20.40;101474.00;;;;5042280;28;20049;-72
2022/05/13 12:06:08;;;;;;;4.35;1.48;;;21.60;43.40;20.50;101466.00;;;;5040423;28;20491;-72
2022/05/13 12:08:57;;;;;;;2.92;1.17;;;21.50;43.10;20.50;101469.00;;;;5020013;28;20094;-74
2022/05/13 12:12:03;;;;;;;3.90;1.08;;;21.60;43.20;20.50;101468.00;;;;5024574;28;20474;-72
2022/05/13 12:15:34;;;;;;;2.95;1.00;;;21.60;43.00;20.50;101470.00;;;;5035005;28;20044;-71
2022/05/13 12:18:35;;;;;;;4.75;1.42;;;21.60;42.90;20.50;101479.00;;;;5026332;28;20421;-71
2022/05/13 12:21:26;;;;;;;3.55;1.58;;;21.70;43.00;20.50;101467.00;;;;5029698;28;20052;-72
2022/05/13 12:24:13;;;;;;;3.33;1.20;;;21.70;43.00;20.60;101483.00;;;;5039966;28;20065;-71
2022/05/13 12:27:06;;;;;;;6.05;1.30;;;21.70;42.90;20.60;101461.00;;;;5036352;28;20116;-71
2022/05/13 12:30:45;;;;;;;2.28;1.10;;;21.70;42.80;20.60;101479.00;;;;5018744;28;20048;-72
2022/05/13 12:33:33;;;;;;;3.60;1.20;;;21.70;42.80;20.60;101485.00;;;;5043112;28;20041;-71
2022/05/13 12:39:44;;;;;;;3.05;1.00;;;21.70;42.70;20.60;101491.00;;;;5027085;28;20048;-71
2022/05/13 12:42:42;;;;;;;3.38;1.10;;;21.70;42.90;20.60;101496.00;;;;5016708;28;20506;-72
2022/05/13 12:45:37;;;;;;;5.78;1.50;;;21.80;42.80;20.60;101491.00;;;;5019336;28;20103;-72
2022/05/13 12:48:23;;;;;;;4.22;0.90;;;21.70;42.90;20.60;101498.00;;;;5040927;28;20533;-72
2022/05/13 12:51:18;;;;;;;2.55;0.93;;;21.80;42.90;20.70;101491.00;;;;5024670;28;20095;-72
2022/05/13 12:54:04;;;;;;;4.43;1.00;;;21.80;42.70;20.70;101493.00;;;;5036595;28;20076;-72
2022/05/13 12:56:59;;;;;;;3.30;0.82;;;21.80;42.60;20.70;101482.00;;;;4998555;28;20048;-71
2022/05/13 12:59:50;;;;;;;3.35;0.90;;;21.80;42.30;20.70;101483.00;;;;5011504;28;20222;-72
2022/05/13 13:02:36;;;;;;;2.17;0.82;;;21.80;42.30;20.70;101479.00;;;;5022263;28;20052;-72